createdAt,value
2023-05-10T00:00:35.478Z,98325.63
2023-05-10T00:01:38.383Z,98327.44
2023-05-10T00:02:41.829Z,98322.50
2023-05-10T00:03:44.946Z,98323.78
2023-05-10T00:04:47.945Z,98319.03
2023-05-10T00:05:50.833Z,98316.50
2023-05-10T00:06:53.918Z,98322.78
2023-05-10T00:07:56.832Z,98313.22
2023-05-10T00:08:59.922Z,98316.50
2023-05-10T00:10:02.793Z,98317.28
2023-05-10T00:11:05.682Z,98312.62
2023-05-10T00:12:08.501Z,98317.53
2023-05-10T00:13:11.281Z,98314.06
2023-05-10T00:14:14.174Z,98319.47
2023-05-10T00:15:16.996Z,98318.28
2023-05-10T00:16:19.794Z,98303.97
2023-05-10T00:17:22.671Z,98316.56
2023-05-10T00:18:25.739Z,98318.28
2023-05-10T00:19:28.511Z,98313.50
2023-05-10T00:20:31.338Z,98315.81
2023-05-10T00:21:34.960Z,98314.84
2023-05-10T00:22:38.047Z,98313.69
2023-05-10T00:23:41.120Z,98312.28
2023-05-10T00:24:43.986Z,98305.47
2023-05-10T00:25:46.909Z,98301.78
2023-05-10T00:26:49.837Z,98308.28
2023-05-10T00:27:52.595Z,98306.97
2023-05-10T00:28:55.586Z,98310.72
2023-05-10T00:29:58.746Z,98308.59
2023-05-10T00:31:01.626Z,98310.44
2023-05-10T00:32:04.635Z,98311.94
2023-05-10T00:33:07.515Z,98305.06
2023-05-10T00:34:10.376Z,98311.44
2023-05-10T00:35:13.212Z,98302.59
2023-05-10T00:36:16.061Z,98303.50
2023-05-10T00:37:18.985Z,98299.75
2023-05-10T00:38:21.923Z,98301.31
2023-05-10T00:39:25.122Z,98306.81
2023-05-10T00:40:28.080Z,98299.91
2023-05-10T00:41:34.793Z,98305.53
2023-05-10T00:42:37.880Z,98305.97
2023-05-10T00:43:40.875Z,98304.44
2023-05-10T00:44:43.893Z,98306.56
2023-05-10T00:45:47.267Z,98293.91
2023-05-10T00:46:50.772Z,98304.72
2023-05-10T00:47:56.412Z,98311.72
2023-05-10T00:48:59.529Z,98301.69
2023-05-10T00:50:03.354Z,98302.31
2023-05-10T00:51:06.508Z,98295.94
2023-05-10T00:52:10.470Z,98300.47
2023-05-10T00:53:13.524Z,98292.63
2023-05-10T00:54:16.593Z,98302.91
2023-05-10T00:55:19.928Z,98305.56
2023-05-10T00:56:24.544Z,98293.56
2023-05-10T00:57:28.133Z,98291.34
2023-05-10T00:58:32.215Z,98300.28
2023-05-10T00:59:35.501Z,98304.88
2023-05-10T01:00:39.828Z,98298.88
2023-05-10T01:01:42.677Z,98296.38
2023-05-10T01:02:47.598Z,98299.78
2023-05-10T01:03:51.138Z,98302.16
2023-05-10T01:04:54.049Z,98304.88
2023-05-10T01:05:56.975Z,98301.84
2023-05-10T01:07:00.673Z,98299.13
2023-05-10T01:08:03.961Z,98302.31
2023-05-10T01:09:07.741Z,98297.66
2023-05-10T01:10:11.764Z,98293.28
2023-05-10T01:11:15.025Z,98296.59
2023-05-10T01:12:18.251Z,98294.75
2023-05-10T01:13:34.992Z,98292.34
2023-05-10T01:14:38.147Z,98290.00
2023-05-10T01:15:42.120Z,98292.91
2023-05-10T01:16:47.596Z,98286.25
2023-05-10T01:17:50.627Z,98290.88
2023-05-10T01:18:54.168Z,98291.50
2023-05-10T01:19:57.290Z,98291.28
2023-05-10T01:21:18.235Z,98300.41
2023-05-10T01:22:26.785Z,98297.50
2023-05-10T01:23:46.967Z,98295.59
2023-05-10T01:25:04.669Z,98290.72
2023-05-10T01:26:19.284Z,98302.47
2023-05-10T01:27:40.736Z,98297.81
2023-05-10T01:29:08.221Z,98295.13
2023-05-10T01:30:16.878Z,98304.22
2023-05-10T01:31:56.996Z,98298.50
2023-05-10T01:33:02.554Z,98299.78
2023-05-10T01:34:14.249Z,98294.06
2023-05-10T01:35:28.901Z,98301.69
2023-05-10T01:36:46.961Z,98295.19
2023-05-10T01:38:17.648Z,98297.84
2023-05-10T01:39:42.184Z,98289.31
2023-05-10T01:41:30.436Z,98295.59
2023-05-10T01:42:42.340Z,98294.47
2023-05-10T01:44:28.052Z,98297.16
2023-05-10T01:45:53.868Z,98291.44
2023-05-10T01:47:07.558Z,98292.78
2023-05-10T01:48:12.527Z,98292.50
2023-05-10T01:49:24.783Z,98297.66
2023-05-10T01:50:31.861Z,98291.28
2023-05-10T01:51:46.554Z,98295.13
2023-05-10T01:52:55.915Z,98290.00
2023-05-10T01:54:03.777Z,98294.13
2023-05-10T01:55:09.362Z,98289.94
2023-05-10T01:56:14.229Z,98294.69
2023-05-10T01:57:19.116Z,98290.44
2023-05-10T01:58:28.536Z,98286.47
2023-05-10T01:59:41.959Z,98288.72
2023-05-10T02:00:47.411Z,98285.13
2023-05-10T02:01:52.405Z,98292.41
2023-05-10T02:02:56.668Z,98287.97
2023-05-10T02:04:00.660Z,98283.38
2023-05-10T02:05:05.292Z,98288.25
2023-05-10T02:06:10.526Z,98280.66
2023-05-10T02:07:15.323Z,98280.53
2023-05-10T02:08:19.406Z,98279.69
2023-05-10T02:09:23.634Z,98274.09
2023-05-10T02:10:27.332Z,98279.34
2023-05-10T02:11:31.842Z,98271.34
2023-05-10T02:12:40.408Z,98284.09
2023-05-10T02:13:44.831Z,98274.41
2023-05-10T02:14:49.001Z,98274.19
2023-05-10T02:15:52.545Z,98267.69
2023-05-10T02:16:57.361Z,98269.88
2023-05-10T02:18:03.881Z,98271.13
2023-05-10T02:19:10.005Z,98276.09
2023-05-10T02:20:14.264Z,98266.97
2023-05-10T02:21:18.676Z,98266.13
2023-05-10T02:22:23.122Z,98260.22
2023-05-10T02:23:27.573Z,98278.00
2023-05-10T02:24:31.671Z,98277.16
2023-05-10T02:25:35.332Z,98268.47
2023-05-10T02:26:40.497Z,98274.66
2023-05-10T02:27:46.005Z,98275.31
2023-05-10T02:28:51.022Z,98268.72
2023-05-10T02:29:55.736Z,98267.03
2023-05-10T02:30:58.837Z,98269.72
2023-05-10T02:32:02.927Z,98273.81
2023-05-10T02:33:07.544Z,98277.00
2023-05-10T02:34:12.515Z,98268.38
2023-05-10T02:35:16.505Z,98263.97
2023-05-10T02:36:23.679Z,98266.69
2023-05-10T02:37:27.550Z,98264.63
2023-05-10T02:38:32.669Z,98265.13
2023-05-10T02:39:36.457Z,98265.69
2023-05-10T02:40:42.011Z,98270.00
2023-05-10T02:41:48.140Z,98266.31
2023-05-10T02:42:55.880Z,98269.91
2023-05-10T02:44:03.960Z,98267.66
2023-05-10T02:45:13.333Z,98266.19
2023-05-10T02:46:16.232Z,98265.25
2023-05-10T02:47:20.330Z,98265.69
2023-05-10T02:48:23.305Z,98265.00
2023-05-10T02:49:26.100Z,98264.47
2023-05-10T02:50:31.517Z,98264.28
2023-05-10T02:51:37.553Z,98267.66
2023-05-10T02:52:45.818Z,98264.19
2023-05-10T02:53:51.425Z,98261.44
2023-05-10T02:54:59.879Z,98267.25
2023-05-10T02:56:08.489Z,98262.22
2023-05-10T02:57:17.217Z,98265.53
2023-05-10T02:58:22.716Z,98264.63
2023-05-10T02:59:25.732Z,98266.38
2023-05-10T03:00:28.560Z,98272.13
2023-05-10T03:01:31.348Z,98264.84
2023-05-10T03:02:34.175Z,98264.72
2023-05-10T03:03:36.959Z,98264.91
2023-05-10T03:04:40.011Z,98263.37
2023-05-10T03:05:43.013Z,98257.34
2023-05-10T03:06:46.277Z,98267.97
2023-05-10T03:07:49.821Z,98268.97
2023-05-10T03:08:52.813Z,98275.09
2023-05-10T03:09:55.713Z,98263.94
2023-05-10T03:11:33.338Z,98272.91
2023-05-10T03:12:54.664Z,98272.97
2023-05-10T03:14:22.324Z,98265.84
2023-05-10T03:15:40.228Z,98265.69
2023-05-10T03:17:32.496Z,98266.53
2023-05-10T03:18:56.107Z,98268.97
2023-05-10T03:20:04.700Z,98269.03
2023-05-10T03:21:13.533Z,98266.62
2023-05-10T03:22:26.621Z,98266.53
2023-05-10T03:23:38.351Z,98265.28
2023-05-10T03:24:43.532Z,98269.28
2023-05-10T03:25:49.251Z,98264.00
2023-05-10T03:26:57.931Z,98269.91
2023-05-10T03:28:03.489Z,98268.94
2023-05-10T03:29:09.182Z,98271.00
2023-05-10T03:30:13.946Z,98268.53
2023-05-10T03:31:17.031Z,98259.59
2023-05-10T03:32:20.208Z,98258.50
2023-05-10T03:33:23.038Z,98266.34
2023-05-10T03:34:26.368Z,98261.75
2023-05-10T03:35:29.234Z,98273.75
2023-05-10T03:36:31.991Z,98265.34
2023-05-10T03:37:34.806Z,98265.75
2023-05-10T03:38:37.835Z,98262.94
2023-05-10T03:39:40.781Z,98263.78
2023-05-10T03:40:43.633Z,98268.38
2023-05-10T03:41:46.402Z,98260.59
2023-05-10T03:42:49.368Z,98275.31
2023-05-10T03:43:52.495Z,98268.94
2023-05-10T03:44:55.416Z,98264.47
2023-05-10T03:45:58.228Z,98266.69
2023-05-10T03:47:01.228Z,98269.72
2023-05-10T03:48:04.555Z,98269.50
2023-05-10T03:49:07.581Z,98272.69
2023-05-10T03:50:11.557Z,98270.22
2023-05-10T03:51:14.500Z,98274.03
2023-05-10T03:52:17.272Z,98267.09
2023-05-10T03:53:20.521Z,98268.84
2023-05-10T03:54:23.324Z,98271.47
2023-05-10T03:55:26.171Z,98263.16
2023-05-10T03:56:29.002Z,98272.19
2023-05-10T03:57:31.976Z,98266.53
2023-05-10T03:58:35.331Z,98266.75
2023-05-10T03:59:38.224Z,98262.00
2023-05-10T04:00:44.951Z,98271.19
2023-05-10T04:01:47.869Z,98268.06
2023-05-10T04:02:50.712Z,98271.00
2023-05-10T04:03:53.742Z,98266.53
2023-05-10T04:04:56.738Z,98261.91
2023-05-10T04:06:03.219Z,98270.47
2023-05-10T04:07:06.241Z,98270.47
2023-05-10T04:08:09.191Z,98260.94
2023-05-10T04:09:12.174Z,98274.59
2023-05-10T04:10:15.275Z,98261.09
2023-05-10T04:11:18.217Z,98276.63
2023-05-10T04:12:21.158Z,98268.28
2023-05-10T04:13:24.060Z,98260.12
2023-05-10T04:14:26.917Z,98268.59
2023-05-10T04:15:29.800Z,98264.06
2023-05-10T04:16:32.656Z,98270.37
2023-05-10T04:17:35.593Z,98257.50
2023-05-10T04:18:38.528Z,98269.50
2023-05-10T04:19:41.523Z,98266.47
2023-05-10T04:20:44.549Z,98269.56
2023-05-10T04:21:47.294Z,98267.25
2023-05-10T04:22:50.149Z,98275.09
2023-05-10T04:23:53.050Z,98271.41
2023-05-10T04:24:55.984Z,98272.97
2023-05-10T04:26:02.885Z,98274.22
2023-05-10T04:27:05.694Z,98273.75
2023-05-10T04:28:08.678Z,98273.88
2023-05-10T04:29:11.587Z,98283.19
2023-05-10T04:30:14.793Z,98278.47
2023-05-10T04:31:18.484Z,98286.31
2023-05-10T04:32:21.593Z,98285.91
2023-05-10T04:33:24.560Z,98287.03
2023-05-10T04:34:27.286Z,98285.28
2023-05-10T04:35:30.304Z,98286.87
2023-05-10T04:36:35.263Z,98281.50
2023-05-10T04:37:38.168Z,98287.53
2023-05-10T04:38:41.217Z,98296.44
2023-05-10T04:39:44.042Z,98284.38
2023-05-10T04:40:47.009Z,98293.47
2023-05-10T04:41:49.990Z,98291.28
2023-05-10T04:42:53.253Z,98286.47
2023-05-10T04:43:56.680Z,98285.50
2023-05-10T04:44:59.476Z,98291.84
2023-05-10T04:46:02.391Z,98285.34
2023-05-10T04:47:05.725Z,98293.91
2023-05-10T04:48:08.742Z,98286.91
2023-05-10T04:49:11.527Z,98298.16
2023-05-10T04:50:14.672Z,98287.91
2023-05-10T04:51:17.741Z,98287.75
2023-05-10T04:52:20.621Z,98288.19
2023-05-10T04:53:23.896Z,98290.09
2023-05-10T04:54:26.789Z,98286.41
2023-05-10T04:55:29.597Z,98287.81
2023-05-10T04:56:32.465Z,98292.19
2023-05-10T04:57:35.184Z,98288.22
2023-05-10T04:58:38.102Z,98286.03
2023-05-10T04:59:40.996Z,98292.19
2023-05-10T05:00:44.011Z,98289.38
2023-05-10T05:01:46.901Z,98286.81
2023-05-10T05:02:50.308Z,98282.78
2023-05-10T05:03:54.290Z,98288.72
2023-05-10T05:04:59.398Z,98286.53
2023-05-10T05:06:02.240Z,98286.19
2023-05-10T05:07:05.577Z,98285.91
2023-05-10T05:08:08.479Z,98291.75
2023-05-10T05:09:11.441Z,98293.53
2023-05-10T05:10:14.528Z,98292.13
2023-05-10T05:11:18.812Z,98292.34
2023-05-10T05:12:21.807Z,98286.81
2023-05-10T05:13:25.018Z,98286.94
2023-05-10T05:14:27.980Z,98291.44
2023-05-10T05:15:31.768Z,98290.75
2023-05-10T05:16:34.814Z,98288.25
2023-05-10T05:17:38.246Z,98295.78
2023-05-10T05:18:41.096Z,98291.44
2023-05-10T05:19:43.944Z,98286.59
2023-05-10T05:20:46.819Z,98290.09
2023-05-10T05:21:49.638Z,98295.66
2023-05-10T05:22:52.690Z,98294.88
2023-05-10T05:23:55.581Z,98290.50
2023-05-10T05:24:59.487Z,98298.97
2023-05-10T05:26:02.298Z,98282.28
2023-05-10T05:27:05.536Z,98289.25
2023-05-10T05:28:08.737Z,98295.75
2023-05-10T05:29:11.566Z,98303.72
2023-05-10T05:30:14.564Z,98297.12
2023-05-10T05:31:17.292Z,98285.78
2023-05-10T05:32:20.622Z,98294.72
2023-05-10T05:33:23.362Z,98296.44
2023-05-10T05:34:27.285Z,98298.38
2023-05-10T05:35:30.241Z,98303.03
2023-05-10T05:36:35.305Z,98303.50
2023-05-10T05:37:39.816Z,98295.47
2023-05-10T05:38:43.214Z,98307.97
2023-05-10T05:39:46.943Z,98304.19
2023-05-10T05:40:49.812Z,98303.25
2023-05-10T05:41:52.656Z,98300.63
2023-05-10T05:42:55.649Z,98295.56
2023-05-10T05:43:58.530Z,98305.47
2023-05-10T05:45:01.300Z,98319.66
2023-05-10T05:46:04.231Z,98309.47
2023-05-10T05:47:07.584Z,98301.09
2023-05-10T05:48:10.697Z,98311.88
2023-05-10T05:49:13.719Z,98319.84
2023-05-10T05:50:16.722Z,98306.66
2023-05-10T05:51:19.530Z,98313.62
2023-05-10T05:52:22.485Z,98315.47
2023-05-10T05:53:25.729Z,98312.94
2023-05-10T05:54:29.253Z,98323.91
2023-05-10T05:55:32.795Z,98317.37
2023-05-10T05:56:35.621Z,98330.03
2023-05-10T05:57:38.880Z,98321.84
2023-05-10T05:58:41.964Z,98317.06
2023-05-10T05:59:45.109Z,98326.78
2023-05-10T06:00:48.081Z,98326.19
2023-05-10T06:01:51.503Z,98325.34
2023-05-10T06:02:54.527Z,98327.94
2023-05-10T06:03:57.525Z,98326.16
2023-05-10T06:05:00.411Z,98330.03
2023-05-10T06:06:03.213Z,98323.97
2023-05-10T06:07:06.253Z,98327.75
2023-05-10T06:08:09.119Z,98324.41
2023-05-10T06:09:12.609Z,98326.66
2023-05-10T06:10:15.577Z,98320.06
2023-05-10T06:11:18.455Z,98325.34
2023-05-10T06:12:21.337Z,98323.38
2023-05-10T06:13:24.249Z,98326.28
2023-05-10T06:14:27.371Z,98322.50
2023-05-10T06:15:30.231Z,98329.38
2023-05-10T06:16:33.123Z,98328.97
2023-05-10T06:17:36.187Z,98328.06
2023-05-10T06:18:39.144Z,98329.81
2023-05-10T06:19:41.931Z,98323.66
2023-05-10T06:20:44.832Z,98327.59
2023-05-10T06:21:47.656Z,98327.25
2023-05-10T06:22:50.503Z,98324.44
2023-05-10T06:23:53.402Z,98328.78
2023-05-10T06:24:56.443Z,98341.91
2023-05-10T06:25:59.327Z,98333.00
2023-05-10T06:27:03.261Z,98330.44
2023-05-10T06:28:06.385Z,98349.38
2023-05-10T06:29:09.156Z,98334.63
2023-05-10T06:30:14.584Z,98341.44
2023-05-10T06:31:17.779Z,98337.09
2023-05-10T06:32:20.712Z,98342.91
2023-05-10T06:33:23.736Z,98343.38
2023-05-10T06:34:26.972Z,98355.56
2023-05-10T06:35:30.477Z,98336.22
2023-05-10T06:36:33.247Z,98341.34
2023-05-10T06:37:36.097Z,98339.37
2023-05-10T06:38:39.367Z,98350.62
2023-05-10T06:39:42.419Z,98331.47
2023-05-10T06:40:45.446Z,98339.31
2023-05-10T06:41:48.409Z,98342.75
2023-05-10T06:42:51.289Z,98343.28
2023-05-10T06:43:54.189Z,98339.53
2023-05-10T06:44:56.908Z,98349.97
2023-05-10T06:46:00.003Z,98340.59
2023-05-10T06:47:02.973Z,98338.00
2023-05-10T06:48:06.080Z,98340.16
2023-05-10T06:49:09.373Z,98342.09
2023-05-10T06:50:15.488Z,98347.53
2023-05-10T06:51:18.795Z,98339.72
2023-05-10T06:52:41.534Z,98347.37
2023-05-10T06:54:04.638Z,98343.09
2023-05-10T06:55:08.198Z,98340.81
2023-05-10T06:56:11.182Z,98336.47
2023-05-10T06:57:27.440Z,98332.31
2023-05-10T06:58:33.956Z,98331.66
2023-05-10T06:59:37.762Z,98334.13
2023-05-10T07:00:41.855Z,98338.00
2023-05-10T07:01:45.031Z,98337.63
2023-05-10T07:02:48.385Z,98338.75
2023-05-10T07:03:51.953Z,98344.31
2023-05-10T07:04:55.408Z,98335.44
2023-05-10T07:06:04.317Z,98328.34
2023-05-10T07:07:07.510Z,98332.69
2023-05-10T07:08:10.340Z,98335.50
2023-05-10T07:09:13.146Z,98331.28
2023-05-10T07:10:16.135Z,98332.25
2023-05-10T07:11:19.061Z,98334.84
2023-05-10T07:12:22.336Z,98327.56
2023-05-10T07:13:25.287Z,98332.37
2023-05-10T07:14:28.480Z,98334.53
2023-05-10T07:15:31.424Z,98329.28
2023-05-10T07:16:34.287Z,98327.25
2023-05-10T07:17:37.275Z,98330.50
2023-05-10T07:18:40.199Z,98330.81
2023-05-10T07:19:43.071Z,98334.84
2023-05-10T07:20:45.981Z,98328.00
2023-05-10T07:21:48.965Z,98336.91
2023-05-10T07:22:51.815Z,98330.28
2023-05-10T07:23:54.836Z,98325.84
2023-05-10T07:24:57.845Z,98337.63
2023-05-10T07:26:01.391Z,98332.25
2023-05-10T07:27:05.459Z,98330.03
2023-05-10T07:28:08.254Z,98324.69
2023-05-10T07:29:11.287Z,98330.34
2023-05-10T07:30:14.568Z,98322.41
2023-05-10T07:31:17.442Z,98323.75
2023-05-10T07:32:20.445Z,98325.03
2023-05-10T07:33:23.282Z,98326.72
2023-05-10T07:34:26.655Z,98320.00
2023-05-10T07:35:29.598Z,98324.44
2023-05-10T07:36:32.470Z,98324.13
2023-05-10T07:37:35.328Z,98327.34
2023-05-10T07:38:40.798Z,98324.75
2023-05-10T07:39:44.067Z,98323.63
2023-05-10T07:40:46.970Z,98327.66
2023-05-10T07:41:49.785Z,98321.22
2023-05-10T07:42:53.104Z,98323.87
2023-05-10T07:43:56.004Z,98323.50
2023-05-10T07:44:59.085Z,98319.16
2023-05-10T07:46:02.336Z,98326.22
2023-05-10T07:47:05.250Z,98331.09
2023-05-10T07:48:08.197Z,98330.03
2023-05-10T07:49:11.184Z,98322.53
2023-05-10T07:50:14.685Z,98323.78
2023-05-10T07:51:17.755Z,98324.37
2023-05-10T07:52:22.392Z,98334.53
2023-05-10T07:53:28.442Z,98329.59
2023-05-10T07:54:31.330Z,98325.81
2023-05-10T07:55:34.712Z,98333.25
2023-05-10T07:56:37.715Z,98328.34
2023-05-10T07:57:40.808Z,98328.94
2023-05-10T07:58:43.623Z,98330.84
2023-05-10T07:59:46.552Z,98323.87
2023-05-10T08:00:50.479Z,98329.59
2023-05-10T08:01:53.371Z,98325.63
2023-05-10T08:02:56.361Z,98320.19
2023-05-10T08:03:59.405Z,98321.56
2023-05-10T08:05:02.471Z,98317.47
2023-05-10T08:06:05.741Z,98319.75
2023-05-10T08:07:08.731Z,98321.06
2023-05-10T08:08:11.547Z,98329.13
2023-05-10T08:09:14.769Z,98323.09
2023-05-10T08:10:18.054Z,98322.47
2023-05-10T08:11:22.404Z,98322.41
2023-05-10T08:12:25.296Z,98326.19
2023-05-10T08:13:28.262Z,98324.97
2023-05-10T08:14:31.083Z,98330.88
2023-05-10T08:15:34.026Z,98328.69
2023-05-10T08:16:36.855Z,98325.03
2023-05-10T08:17:39.847Z,98320.16
2023-05-10T08:18:42.893Z,98326.97
2023-05-10T08:19:46.034Z,98319.75
2023-05-10T08:20:49.233Z,98321.94
2023-05-10T08:21:52.277Z,98323.97
2023-05-10T08:22:55.192Z,98339.37
2023-05-10T08:23:58.916Z,98323.69
2023-05-10T08:25:01.872Z,98330.25
2023-05-10T08:26:05.215Z,98328.78
2023-05-10T08:27:08.144Z,98326.72
2023-05-10T08:28:11.977Z,98330.34
2023-05-10T08:29:15.883Z,98331.09
2023-05-10T08:30:18.828Z,98322.25
2023-05-10T08:31:21.864Z,98326.16
2023-05-10T08:32:24.938Z,98327.75
2023-05-10T08:33:27.991Z,98328.19
2023-05-10T08:34:32.331Z,98321.16
2023-05-10T08:35:36.134Z,98318.97
2023-05-10T08:36:39.074Z,98317.34
2023-05-10T08:37:41.868Z,98316.87
2023-05-10T08:38:44.702Z,98329.34
2023-05-10T08:39:50.532Z,98316.03
2023-05-10T08:40:59.810Z,98318.41
2023-05-10T08:42:05.696Z,98323.72
2023-05-10T08:43:11.308Z,98325.50
2023-05-10T08:44:14.529Z,98316.34
2023-05-10T08:45:19.687Z,98324.16
2023-05-10T08:46:24.525Z,98329.22
2023-05-10T08:47:27.894Z,98327.19
2023-05-10T08:48:32.269Z,98320.72
2023-05-10T08:49:36.019Z,98312.94
2023-05-10T08:50:41.232Z,98327.75
2023-05-10T08:51:48.584Z,98318.88
2023-05-10T08:52:54.334Z,98321.63
2023-05-10T08:53:58.256Z,98323.72
2023-05-10T08:55:01.376Z,98322.28
2023-05-10T08:56:05.097Z,98338.84
2023-05-10T08:57:08.105Z,98328.12
2023-05-10T08:58:11.369Z,98320.69
2023-05-10T08:59:15.381Z,98328.25
2023-05-10T09:00:19.810Z,98334.81
2023-05-10T09:01:23.115Z,98321.56
2023-05-10T09:02:27.136Z,98323.63
2023-05-10T09:03:30.913Z,98335.97
2023-05-10T09:04:34.303Z,98325.78
2023-05-10T09:05:37.798Z,98323.38
2023-05-10T09:06:41.145Z,98317.31
2023-05-10T09:07:43.981Z,98317.34
2023-05-10T09:08:47.455Z,98325.66
2023-05-10T09:09:50.464Z,98332.37
2023-05-10T09:10:54.246Z,98329.09
2023-05-10T09:11:57.215Z,98325.94
2023-05-10T09:13:00.577Z,98327.28
2023-05-10T09:14:03.977Z,98325.28
2023-05-10T09:15:10.837Z,98331.44
2023-05-10T09:16:21.125Z,98322.16
2023-05-10T09:17:25.852Z,98332.31
2023-05-10T09:18:28.974Z,98330.22
2023-05-10T09:19:31.911Z,98331.66
2023-05-10T09:20:34.705Z,98333.06
2023-05-10T09:21:39.774Z,98321.06
2023-05-10T09:22:42.640Z,98325.81
2023-05-10T09:23:48.657Z,98333.63
2023-05-10T09:25:25.570Z,98331.75
2023-05-10T09:26:28.957Z,98328.69
2023-05-10T09:27:32.032Z,98330.66
2023-05-10T09:28:51.036Z,98324.69
2023-05-10T09:29:55.663Z,98322.25
2023-05-10T09:30:58.893Z,98323.50
2023-05-10T09:32:02.034Z,98318.97
2023-05-10T09:33:05.405Z,98316.87
2023-05-10T09:34:08.449Z,98316.00
2023-05-10T09:35:19.842Z,98319.84
2023-05-10T09:36:22.713Z,98307.28
2023-05-10T09:37:31.103Z,98312.00
2023-05-10T09:38:50.039Z,98316.00
2023-05-10T09:39:56.279Z,98320.97
2023-05-10T09:40:59.419Z,98317.19
2023-05-10T09:42:20.735Z,98323.56
2023-05-10T09:43:23.570Z,98307.97
2023-05-10T09:44:27.576Z,98299.16
2023-05-10T09:45:37.802Z,98307.81
2023-05-10T09:46:41.714Z,98304.84
2023-05-10T09:47:44.723Z,98310.09
2023-05-10T09:48:48.967Z,98303.97
2023-05-10T09:49:52.503Z,98312.75
2023-05-10T09:50:58.783Z,98313.59
2023-05-10T09:52:04.957Z,98310.91
2023-05-10T09:53:07.970Z,98317.13
2023-05-10T09:54:12.144Z,98306.44
2023-05-10T09:55:15.597Z,98300.69
2023-05-10T09:56:38.709Z,98298.09
2023-05-10T09:57:42.142Z,98301.75
2023-05-10T09:58:45.009Z,98299.03
2023-05-10T09:59:48.575Z,98305.88
2023-05-10T10:00:55.923Z,98309.87
2023-05-10T10:02:00.838Z,98291.97
2023-05-10T10:03:04.915Z,98296.28
2023-05-10T10:04:12.105Z,98305.22
2023-05-10T10:05:15.294Z,98302.56
2023-05-10T10:06:29.630Z,98299.38
2023-05-10T10:07:34.045Z,98298.19
2023-05-10T10:08:37.133Z,98295.47
2023-05-10T10:09:40.147Z,98296.63
2023-05-10T10:10:46.287Z,98292.69
2023-05-10T10:11:49.537Z,98301.06
2023-05-10T10:12:53.335Z,98301.50
2023-05-10T10:13:56.560Z,98296.31
2023-05-10T10:15:02.453Z,98297.78
2023-05-10T10:16:06.483Z,98290.56
2023-05-10T10:17:10.483Z,98293.19
2023-05-10T10:18:16.775Z,98290.12
2023-05-10T10:19:21.768Z,98294.37
2023-05-10T10:20:26.297Z,98285.59
2023-05-10T10:21:29.906Z,98281.50
2023-05-10T10:22:32.875Z,98288.72
2023-05-10T10:23:38.901Z,98286.69
2023-05-10T10:24:41.972Z,98272.19
2023-05-10T10:25:46.013Z,98274.91
2023-05-10T10:26:50.285Z,98283.97
2023-05-10T10:27:53.106Z,98273.69
2023-05-10T10:29:18.197Z,98279.19
2023-05-10T10:30:27.328Z,98286.91
2023-05-10T10:31:39.322Z,98282.81
2023-05-10T10:32:54.210Z,98278.00
2023-05-10T10:34:09.309Z,98275.47
2023-05-10T10:35:12.378Z,98276.34
2023-05-10T10:36:16.928Z,98276.72
2023-05-10T10:37:19.973Z,98286.16
2023-05-10T10:38:23.269Z,98280.03
2023-05-10T10:39:26.669Z,98279.31
2023-05-10T10:40:34.649Z,98267.72
2023-05-10T10:41:45.302Z,98265.44
2023-05-10T10:42:51.066Z,98269.09
2023-05-10T10:44:29.037Z,98276.59
2023-05-10T10:45:32.016Z,98274.28
2023-05-10T10:46:35.796Z,98278.34
2023-05-10T10:47:38.670Z,98278.13
2023-05-10T10:49:11.236Z,98275.03
2023-05-10T10:50:14.574Z,98272.56
2023-05-10T10:51:17.456Z,98266.28
2023-05-10T10:52:42.108Z,98270.50
2023-05-10T10:53:45.404Z,98275.88
2023-05-10T10:54:58.244Z,98275.38
2023-05-10T10:56:10.617Z,98277.06
2023-05-10T10:57:14.951Z,98275.22
2023-05-10T10:58:36.711Z,98266.13
2023-05-10T10:59:47.434Z,98268.44
2023-05-10T11:00:50.420Z,98269.06
2023-05-10T11:01:53.356Z,98274.97
2023-05-10T11:03:13.157Z,98266.25
2023-05-10T11:04:18.788Z,98258.69
2023-05-10T11:05:25.956Z,98253.31
2023-05-10T11:06:36.922Z,98243.00
2023-05-10T11:08:07.809Z,98248.63
2023-05-10T11:09:13.544Z,98251.59
2023-05-10T11:10:21.736Z,98253.16
2023-05-10T11:11:24.652Z,98247.63
2023-05-10T11:12:27.675Z,98245.81
2023-05-10T11:13:40.983Z,98244.16
2023-05-10T11:14:43.980Z,98246.44
2023-05-10T11:15:51.051Z,98250.69
2023-05-10T11:16:54.061Z,98247.87
2023-05-10T11:17:57.098Z,98250.75
2023-05-10T11:19:06.333Z,98239.72
2023-05-10T11:20:16.170Z,98243.00
2023-05-10T11:21:19.592Z,98240.94
2023-05-10T11:22:22.450Z,98237.47
2023-05-10T11:23:49.281Z,98238.72
2023-05-10T11:25:01.803Z,98240.37
2023-05-10T11:26:06.283Z,98245.00
2023-05-10T11:27:09.375Z,98231.41
2023-05-10T11:28:14.498Z,98236.19
2023-05-10T11:29:17.738Z,98245.75
2023-05-10T11:30:21.326Z,98243.25
2023-05-10T11:31:24.613Z,98237.59
2023-05-10T11:32:27.875Z,98234.34
2023-05-10T11:33:31.092Z,98235.78
2023-05-10T11:34:36.791Z,98239.97
2023-05-10T11:35:42.481Z,98241.37
2023-05-10T11:36:52.913Z,98235.25
2023-05-10T11:37:55.648Z,98235.19
2023-05-10T11:38:58.587Z,98238.06
2023-05-10T11:40:01.825Z,98232.03
2023-05-10T11:41:04.862Z,98238.00
2023-05-10T11:42:10.431Z,98230.31
2023-05-10T11:43:13.345Z,98238.44
2023-05-10T11:44:16.383Z,98231.25
2023-05-10T11:45:19.344Z,98224.47
2023-05-10T11:46:24.493Z,98224.91
2023-05-10T11:47:27.356Z,98219.44
2023-05-10T11:48:31.419Z,98224.06
2023-05-10T11:49:34.774Z,98223.22
2023-05-10T11:50:37.794Z,98223.38
2023-05-10T11:51:41.146Z,98221.34
2023-05-10T11:52:44.038Z,98224.25
2023-05-10T11:53:46.816Z,98229.25
2023-05-10T11:54:53.630Z,98224.19
2023-05-10T11:55:56.673Z,98212.69
2023-05-10T11:56:59.596Z,98219.47
2023-05-10T11:58:03.902Z,98215.97
2023-05-10T11:59:07.051Z,98218.31
2023-05-10T12:00:10.421Z,98227.78
2023-05-10T12:01:13.511Z,98218.47
2023-05-10T12:02:16.646Z,98218.25
2023-05-10T12:03:20.218Z,98217.09
2023-05-10T12:04:23.508Z,98222.44
2023-05-10T12:05:26.906Z,98214.00
2023-05-10T12:06:38.549Z,98235.44
2023-05-10T12:07:41.544Z,98235.13
2023-05-10T12:08:51.134Z,98223.63
2023-05-10T12:10:13.489Z,98227.59
2023-05-10T12:11:16.867Z,98228.81
2023-05-10T12:12:19.783Z,98227.78
2023-05-10T12:13:22.597Z,98223.94
2023-05-10T12:14:25.728Z,98215.88
2023-05-10T12:15:29.259Z,98228.22
2023-05-10T12:16:32.160Z,98231.75
2023-05-10T12:17:35.008Z,98214.16
2023-05-10T12:18:41.374Z,98225.00
2023-05-10T12:19:45.010Z,98216.84
2023-05-10T12:20:47.836Z,98226.16
2023-05-10T12:21:50.763Z,98221.00
2023-05-10T12:22:58.330Z,98227.25
2023-05-10T12:24:04.625Z,98215.06
2023-05-10T12:25:09.575Z,98212.00
2023-05-10T12:26:12.734Z,98223.53
2023-05-10T12:28:36.595Z,98207.50
2023-05-10T12:29:45.031Z,98218.47
2023-05-10T12:30:47.766Z,98216.41
2023-05-10T12:31:55.620Z,98203.31
2023-05-10T12:33:11.280Z,98209.31
2023-05-10T12:34:41.565Z,98214.34
2023-05-10T12:35:54.547Z,98199.69
2023-05-10T12:36:57.607Z,98199.19
2023-05-10T12:38:00.794Z,98192.16
2023-05-10T12:39:04.653Z,98208.00
2023-05-10T12:40:09.465Z,98205.19
2023-05-10T12:41:14.991Z,98198.00
2023-05-10T12:42:17.906Z,98197.25
2023-05-10T12:43:20.876Z,98199.91
2023-05-10T12:44:23.624Z,98202.37
2023-05-10T12:45:26.715Z,98203.50
2023-05-10T12:46:29.736Z,98210.44
2023-05-10T12:47:33.702Z,98204.69
2023-05-10T12:48:37.374Z,98199.56